sensor_id;sensor_type;location;lat;lon;timestamp;pressure;altitude;pressure_sealevel;temperature;humidity
30714;BME280;17465;47.934;33.430;2023-07-29T00:01:24;57457.52;;;-140.43;82.33
30714;BME280;17465;47.934;33.430;2023-07-29T00:03:55;57439.52;;;-140.43;81.67
30714;BME280;17465;47.934;33.430;2023-07-29T00:06:25;57429.98;;;-140.43;82.20
30714;BME280;17465;47.934;33.430;2023-07-29T00:08:55;57431.04;;;-140.43;83.18
30714;BME280;17465;47.934;33.430;2023-07-29T00:11:25;57431.04;;;-140.43;83.18
30714;BME280;17465;47.934;33.430;2023-07-29T00:13:56;57432.10;;;-140.43;84.78
30714;BME280;17465;47.934;33.430;2023-07-29T00:16:26;57432.10;;;-140.43;84.78
30714;BME280;17465;47.934;33.430;2023-07-29T00:18:57;57436.34;;;-140.43;84.77
30714;BME280;17465;47.934;33.430;2023-07-29T00:21:27;57441.63;;;-140.43;84.41
30714;BME280;17465;47.934;33.430;2023-07-29T00:23:57;57414.10;;;-140.43;82.86
30714;BME280;17465;47.934;33.430;2023-07-29T00:26:28;57414.10;;;-140.43;82.86
30714;BME280;17465;47.934;33.430;2023-07-29T00:28:58;57398.21;;;-140.43;82.20
30714;BME280;17465;47.934;33.430;2023-07-29T00:31:28;57422.57;;;-140.43;83.27
30714;BME280;17465;47.934;33.430;2023-07-29T00:33:59;57423.63;;;-140.43;82.98
30714;BME280;17465;47.934;33.430;2023-07-29T00:36:29;57428.92;;;-140.43;84.30
30714;BME280;17465;47.934;33.430;2023-07-29T00:38:59;57428.92;;;-140.43;84.30
30714;BME280;17465;47.934;33.430;2023-07-29T00:41:30;57423.63;;;-140.43;87.09
30714;BME280;17465;47.934;33.430;2023-07-29T00:44:00;57429.98;;;-140.43;87.13
30714;BME280;17465;47.934;33.430;2023-07-29T00:46:33;57411.98;;;-140.43;88.19
30714;BME280;17465;47.934;33.430;2023-07-29T00:49:04;57421.51;;;-140.43;88.61
30714;BME280;17465;47.934;33.430;2023-07-29T00:51:34;57421.51;;;-140.43;88.61
30714;BME280;17465;47.934;33.430;2023-07-29T00:54:05;57391.86;;;-140.43;89.12
30714;BME280;17465;47.934;33.430;2023-07-29T00:56:36;57411.98;;;-140.43;89.92
30714;BME280;17465;47.934;33.430;2023-07-29T00:59:07;57424.69;;;-140.43;89.85
30714;BME280;17465;47.934;33.430;2023-07-29T01:01:37;57424.69;;;-140.43;89.85
30714;BME280;17465;47.934;33.430;2023-07-29T01:04:08;57422.57;;;-140.43;90.45
30714;BME280;17465;47.934;33.430;2023-07-29T01:07:02;57406.68;;;-140.43;89.55
30714;BME280;17465;47.934;33.430;2023-07-29T01:09:43;57389.74;;;-140.43;89.52
30714;BME280;17465;47.934;33.430;2023-07-29T01:12:42;57371.73;;;-140.43;89.25
30714;BME280;17465;47.934;33.430;2023-07-29T01:18:22;57407.74;;;-140.43;89.22
30714;BME280;17465;47.934;33.430;2023-07-29T01:20:54;57385.50;;;-140.43;89.50
30714;BME280;17465;47.934;33.430;2023-07-29T01:23:31;57380.21;;;-140.43;89.79
30714;BME280;17465;47.934;33.430;2023-07-29T01:26:03;57380.21;;;-140.43;89.79
30714;BME280;17465;47.934;33.430;2023-07-29T01:28:36;57402.45;;;-140.43;89.54
30714;BME280;17465;47.934;33.430;2023-07-29T01:31:16;57396.09;;;-140.43;90.95
30714;BME280;17465;47.934;33.430;2023-07-29T01:34:06;57405.62;;;-140.43;90.61
30714;BME280;17465;47.934;33.430;2023-07-29T01:36:32;57400.33;;;-140.43;91.18
30714;BME280;17465;47.934;33.430;2023-07-29T01:39:06;57398.21;;;-140.43;90.86
30714;BME280;17465;47.934;33.430;2023-07-29T01:41:36;57416.21;;;-140.43;91.09
30714;BME280;17465;47.934;33.430;2023-07-29T01:44:07;57416.21;;;-140.43;91.09
30714;BME280;17465;47.934;33.430;2023-07-29T01:46:37;57390.80;;;-140.43;91.17
30714;BME280;17465;47.934;33.430;2023-07-29T01:49:08;57390.80;;;-140.43;91.17
30714;BME280;17465;47.934;33.430;2023-07-29T01:51:38;57408.80;;;-140.43;91.06
30714;BME280;17465;47.934;33.430;2023-07-29T01:54:08;57402.45;;;-140.43;90.18
30714;BME280;17465;47.934;33.430;2023-07-29T01:56:38;57397.15;;;-140.43;89.89
30714;BME280;17465;47.934;33.430;2023-07-29T01:59:09;57397.15;;;-140.43;89.89
30714;BME280;17465;47.934;33.430;2023-07-29T02:01:39;57395.03;;;-140.43;91.08
30714;BME280;17465;47.934;33.430;2023-07-29T02:04:10;57395.03;;;-140.43;91.08
30714;BME280;17465;47.934;33.430;2023-07-29T02:06:40;57401.39;;;-140.43;91.44
30714;BME280;17465;47.934;33.430;2023-07-29T02:09:10;57392.91;;;-140.43;91.05
30714;BME280;17465;47.934;33.430;2023-07-29T02:11:40;57437.39;;;-140.43;91.16
30714;BME280;17465;47.934;33.430;2023-07-29T02:14:11;57391.86;;;-140.43;91.64
30714;BME280;17465;47.934;33.430;2023-07-29T02:16:41;57391.86;;;-140.43;91.64
30714;BME280;17465;47.934;33.430;2023-07-29T02:19:11;57386.56;;;-140.43;90.87
30714;BME280;17465;47.934;33.430;2023-07-29T02:21:42;57413.04;;;-140.43;90.47
30714;BME280;17465;47.934;33.430;2023-07-29T02:24:13;57408.80;;;-140.43;90.07
30714;BME280;17465;47.934;33.430;2023-07-29T02:26:43;57408.80;;;-140.43;90.07
30714;BME280;17465;47.934;33.430;2023-07-29T02:29:13;57391.86;;;-140.43;90.20
30714;BME280;17465;47.934;33.430;2023-07-29T02:31:43;57405.62;;;-140.43;90.38
30714;BME280;17465;47.934;33.430;2023-07-29T02:34:14;57405.62;;;-140.43;90.38
30714;BME280;17465;47.934;33.430;2023-07-29T02:36:44;57381.27;;;-140.43;91.08
30714;BME280;17465;47.934;33.430;2023-07-29T02:39:14;57381.27;;;-140.43;91.08
30714;BME280;17465;47.934;33.430;2023-07-29T02:41:44;57400.33;;;-140.43;89.50
30714;BME280;17465;47.934;33.430;2023-07-29T02:44:15;57396.09;;;-140.43;89.04
30714;BME280;17465;47.934;33.430;2023-07-29T02:46:47;57396.09;;;-140.43;89.04
30714;BME280;17465;47.934;33.430;2023-07-29T02:49:20;57386.56;;;-140.43;89.23
30714;BME280;17465;47.934;33.430;2023-07-29T02:51:50;57431.04;;;-140.43;89.44
30714;BME280;17465;47.934;33.430;2023-07-29T02:54:21;57431.04;;;-140.43;89.44
30714;BME280;17465;47.934;33.430;2023-07-29T02:56:53;57379.15;;;-140.43;87.71
30714;BME280;17465;47.934;33.430;2023-07-29T02:59:28;57361.14;;;-140.43;88.67
30714;BME280;17465;47.934;33.430;2023-07-29T03:01:56;57380.21;;;-140.43;87.37
30714;BME280;17465;47.934;33.430;2023-07-29T03:04:27;57380.21;;;-140.43;87.37
30714;BME280;17465;47.934;33.430;2023-07-29T03:06:57;57385.50;;;-140.43;86.50
30714;BME280;17465;47.934;33.430;2023-07-29T03:09:27;57385.50;;;-140.43;86.50
30714;BME280;17465;47.934;33.430;2023-07-29T03:11:57;57407.74;;;-140.43;88.02
30714;BME280;17465;47.934;33.430;2023-07-29T03:14:27;57407.74;;;-140.43;88.02
30714;BME280;17465;47.934;33.430;2023-07-29T03:16:58;57407.74;;;-140.43;84.20
30714;BME280;17465;47.934;33.430;2023-07-29T03:19:33;57407.74;;;-140.43;84.20
30714;BME280;17465;47.934;33.430;2023-07-29T03:22:03;57403.51;;;-140.43;85.26
30714;BME280;17465;47.934;33.430;2023-07-29T03:24:33;57401.39;;;-140.43;87.41
30714;BME280;17465;47.934;33.430;2023-07-29T03:27:04;57425.75;;;-140.43;84.73
30714;BME280;17465;47.934;33.430;2023-07-29T03:29:34;57425.75;;;-140.43;84.73
30714;BME280;17465;47.934;33.430;2023-07-29T03:32:06;57396.09;;;-140.43;83.90
30714;BME280;17465;47.934;33.430;2023-07-29T03:34:36;57396.09;;;-140.43;83.90
30714;BME280;17465;47.934;33.430;2023-07-29T03:37:07;57426.80;;;-140.43;81.65
30714;BME280;17465;47.934;33.430;2023-07-29T03:39:37;57407.74;;;-140.43;81.70
30714;BME280;17465;47.934;33.430;2023-07-29T03:42:07;57432.10;;;-140.43;79.76
30714;BME280;17465;47.934;33.430;2023-07-29T03:44:37;57432.10;;;-140.43;79.76
30714;BME280;17465;47.934;33.430;2023-07-29T03:47:07;57415.16;;;-140.43;79.22
30714;BME280;17465;47.934;33.430;2023-07-29T03:49:39;57432.10;;;-140.43;78.23
30714;BME280;17465;47.934;33.430;2023-07-29T03:52:09;57443.75;;;-140.43;77.60
30714;BME280;17465;47.934;33.430;2023-07-29T03:54:40;57441.63;;;-140.43;77.67
30714;BME280;17465;47.934;33.430;2023-07-29T03:57:10;57435.28;;;-140.43;77.57
30714;BME280;17465;47.934;33.430;2023-07-29T03:59:40;57435.28;;;-140.43;77.57
30714;BME280;17465;47.934;33.430;2023-07-29T04:02:10;57440.57;;;-140.43;77.30
30714;BME280;17465;47.934;33.430;2023-07-29T04:04:40;57419.39;;;-140.43;77.63
30714;BME280;17465;47.934;33.430;2023-07-29T04:07:11;57442.69;;;-140.43;77.48
30714;BME280;17465;47.934;33.430;2023-07-29T04:09:41;57442.69;;;-140.43;77.48
30714;BME280;17465;47.934;33.430;2023-07-29T04:12:11;57445.87;;;-140.43;78.17
30714;BME280;17465;47.934;33.430;2023-07-29T04:14:43;57434.22;;;-140.43;78.63
30714;BME280;17465;47.934;33.430;2023-07-29T04:17:16;57425.75;;;-140.43;78.62
30714;BME280;17465;47.934;33.430;2023-07-29T04:19:51;57446.93;;;-140.43;76.72
30714;BME280;17465;47.934;33.430;2023-07-29T04:22:24;57432.10;;;-140.43;75.90
30714;BME280;17465;47.934;33.430;2023-07-29T04:24:57;57432.10;;;-140.43;75.90
30714;BME280;17465;47.934;33.430;2023-07-29T04:27:28;57457.52;;;-140.43;74.77
30714;BME280;17465;47.934;33.430;2023-07-29T04:29:58;57457.52;;;-140.43;74.77
30714;BME280;17465;47.934;33.430;2023-07-29T04:32:29;57462.82;;;-140.43;71.92
30714;BME280;17465;47.934;33.430;2023-07-29T04:34:59;57421.51;;;-140.43;72.06
30714;BME280;17465;47.934;33.430;2023-07-29T04:37:30;57421.51;;;-140.43;72.06
30714;BME280;17465;47.934;33.430;2023-07-29T04:40:00;57452.23;;;-140.43;71.55
30714;BME280;17465;47.934;33.430;2023-07-29T04:42:31;57471.29;;;-140.43;69.63
30714;BME280;17465;47.934;33.430;2023-07-29T04:45:01;57471.29;;;-140.43;69.63
30714;BME280;17465;47.934;33.430;2023-07-29T04:47:32;57455.40;;;-140.43;68.54
30714;BME280;17465;47.934;33.430;2023-07-29T04:50:02;57455.40;;;-140.43;68.54
30714;BME280;17465;47.934;33.430;2023-07-29T04:52:32;57467.05;;;-140.43;68.07
30714;BME280;17465;47.934;33.430;2023-07-29T04:55:03;57504.12;;;-140.43;67.34
30714;BME280;17465;47.934;33.430;2023-07-29T04:57:34;57500.94;;;-140.43;66.66
30714;BME280;17465;47.934;33.430;2023-07-29T05:00:04;57496.71;;;-140.43;66.72
30714;BME280;17465;47.934;33.430;2023-07-29T05:02:35;57528.48;;;-140.43;65.26
30714;BME280;17465;47.934;33.430;2023-07-29T05:05:06;57508.36;;;-140.43;64.80
30714;BME280;17465;47.934;33.430;2023-07-29T05:07:36;57505.18;;;-140.43;63.91
30714;BME280;17465;47.934;33.430;2023-07-29T05:10:08;57543.31;;;-140.43;63.52
30714;BME280;17465;47.934;33.430;2023-07-29T05:12:38;57531.66;;;-140.43;64.45
30714;BME280;17465;47.934;33.430;2023-07-29T05:15:09;57520.01;;;-140.43;64.26
30714;BME280;17465;47.934;33.430;2023-07-29T05:17:39;57520.01;;;-140.43;64.26
30714;BME280;17465;47.934;33.430;2023-07-29T05:20:10;57543.31;;;-140.43;64.27
30714;BME280;17465;47.934;33.430;2023-07-29T05:22:41;57523.18;;;-140.43;64.54
30714;BME280;17465;47.934;33.430;2023-07-29T05:25:11;57523.18;;;-140.43;64.54
30714;BME280;17465;47.934;33.430;2023-07-29T05:27:41;57525.30;;;-140.43;64.18
30714;BME280;17465;47.934;33.430;2023-07-29T05:30:12;57547.54;;;-140.43;62.70
30714;BME280;17465;47.934;33.430;2023-07-29T05:32:42;57533.77;;;-140.43;62.40
30714;BME280;17465;47.934;33.430;2023-07-29T05:35:12;57535.89;;;-140.43;62.61
30714;BME280;17465;47.934;33.430;2023-07-29T05:37:42;57553.90;;;-140.43;62.68
30714;BME280;17465;47.934;33.430;2023-07-29T05:40:14;57517.89;;;-140.43;63.08
30714;BME280;17465;47.934;33.430;2023-07-29T05:42:45;57553.90;;;-140.43;62.76
30714;BME280;17465;47.934;33.430;2023-07-29T05:45:16;57571.90;;;-140.43;64.33
30714;BME280;17465;47.934;33.430;2023-07-29T05:47:46;57549.66;;;-140.43;61.10
30714;BME280;17465;47.934;33.430;2023-07-29T05:50:16;57571.90;;;-140.43;59.10
30714;BME280;17465;47.934;33.430;2023-07-29T05:52:49;57571.90;;;-140.43;59.10
30714;BME280;17465;47.934;33.430;2023-07-29T05:55:19;57581.44;;;-140.43;59.55
30714;BME280;17465;47.934;33.430;2023-07-29T05:57:49;57585.67;;;-140.43;55.08
30714;BME280;17465;47.934;33.430;2023-07-29T06:00:19;57602.62;;;-140.43;53.64
30714;BME280;17465;47.934;33.430;2023-07-29T06:02:50;57622.74;;;-140.43;52.33
30714;BME280;17465;47.934;33.430;2023-07-29T06:05:20;57613.21;;;-140.43;54.42
30714;BME280;17465;47.934;33.430;2023-07-29T06:07:51;57613.21;;;-140.43;54.42
30714;BME280;17465;47.934;33.430;2023-07-29T06:10:24;57628.04;;;-140.43;55.10
30714;BME280;17465;47.934;33.430;2023-07-29T06:12:54;57628.04;;;-140.43;55.10
30714;BME280;17465;47.934;33.430;2023-07-29T06:15:26;57651.34;;;-140.43;54.07
30714;BME280;17465;47.934;33.430;2023-07-29T06:17:57;57613.21;;;-140.43;54.07
30714;BME280;17465;47.934;33.430;2023-07-29T06:20:29;57623.80;;;-140.43;53.52
30714;BME280;17465;47.934;33.430;2023-07-29T06:23:01;57625.92;;;-140.43;54.75
30714;BME280;17465;47.934;33.430;2023-07-29T06:25:31;57598.38;;;-140.43;55.75
30714;BME280;17465;47.934;33.430;2023-07-29T06:28:07;57620.62;;;-140.43;54.21
30714;BME280;17465;47.934;33.430;2023-07-29T06:30:33;57604.74;;;-140.43;55.69
30714;BME280;17465;47.934;33.430;2023-07-29T06:33:11;57655.58;;;-140.43;53.97
30714;BME280;17465;47.934;33.430;2023-07-29T06:35:43;57646.04;;;-140.43;49.48
30714;BME280;17465;47.934;33.430;2023-07-29T06:38:13;57644.98;;;-140.43;48.54
30714;BME280;17465;47.934;33.430;2023-07-29T06:40:45;57660.87;;;-140.43;46.52
30714;BME280;17465;47.934;33.430;2023-07-29T06:43:17;57660.87;;;-140.43;46.52
30714;BME280;17465;47.934;33.430;2023-07-29T06:45:57;57747.72;;;-140.43;48.46
30714;BME280;17465;47.934;33.430;2023-07-29T06:48:31;57747.72;;;-140.43;48.46
30714;BME280;17465;47.934;33.430;2023-07-29T06:51:01;57807.04;;;-140.43;43.14
30714;BME280;17465;47.934;33.430;2023-07-29T06:53:39;57807.04;;;-140.43;43.14
30714;BME280;17465;47.934;33.430;2023-07-29T06:56:08;57860.00;;;-140.43;41.08
30714;BME280;17465;47.934;33.430;2023-07-29T06:58:38;57883.30;;;-140.43;39.32
30714;BME280;17465;47.934;33.430;2023-07-29T07:01:09;57883.30;;;-140.43;39.32
30714;BME280;17465;47.934;33.430;2023-07-29T07:03:41;57861.06;;;-140.43;39.91
30714;BME280;17465;47.934;33.430;2023-07-29T07:06:14;57864.24;;;-140.43;39.73
30714;BME280;17465;47.934;33.430;2023-07-29T07:08:45;57864.24;;;-140.43;39.73
30714;BME280;17465;47.934;33.430;2023-07-29T07:11:20;57950.04;;;-140.43;42.74
30714;BME280;17465;47.934;33.430;2023-07-29T07:13:50;57932.03;;;-140.43;39.13
30714;BME280;17465;47.934;33.430;2023-07-29T07:16:23;57932.03;;;-140.43;39.13
30714;BME280;17465;47.934;33.430;2023-07-29T07:18:59;57966.98;;;-140.43;38.71
30714;BME280;17465;47.934;33.430;2023-07-29T07:21:33;57966.98;;;-140.43;38.71
30714;BME280;17465;47.934;33.430;2023-07-29T07:24:04;57992.41;;;-140.43;38.14
30714;BME280;17465;47.934;33.430;2023-07-29T07:26:35;57988.17;;;-140.43;36.60
30714;BME280;17465;47.934;33.430;2023-07-29T07:29:05;57966.98;;;-140.43;36.71
30714;BME280;17465;47.934;33.430;2023-07-29T07:31:36;58015.71;;;-140.43;36.99
30714;BME280;17465;47.934;33.430;2023-07-29T07:34:08;58029.48;;;-140.43;37.58
30714;BME280;17465;47.934;33.430;2023-07-29T07:36:38;58065.50;;;-140.43;36.48
30714;BME280;17465;47.934;33.430;2023-07-29T07:39:10;58065.50;;;-140.43;36.48
30714;BME280;17465;47.934;33.430;2023-07-29T07:41:41;57973.34;;;-140.43;35.75
30714;BME280;17465;47.934;33.430;2023-07-29T07:44:13;57973.34;;;-140.43;35.75
30714;BME280;17465;47.934;33.430;2023-07-29T07:46:46;57973.34;;;-140.43;36.06
30714;BME280;17465;47.934;33.430;2023-07-29T07:49:16;58008.30;;;-140.43;37.21
30714;BME280;17465;47.934;33.430;2023-07-29T07:51:46;57968.04;;;-140.43;39.77
30714;BME280;17465;47.934;33.430;2023-07-29T07:54:17;57968.04;;;-140.43;39.77
30714;BME280;17465;47.934;33.430;2023-07-29T07:56:48;57982.87;;;-140.43;37.13
30714;BME280;17465;47.934;33.430;2023-07-29T07:59:19;57996.64;;;-140.43;38.79
30714;BME280;17465;47.934;33.430;2023-07-29T08:01:49;57960.63;;;-140.43;37.64
30714;BME280;17465;47.934;33.430;2023-07-29T08:04:19;57960.63;;;-140.43;37.64
30714;BME280;17465;47.934;33.430;2023-07-29T08:06:50;57959.57;;;-140.43;39.54
30714;BME280;17465;47.934;33.430;2023-07-29T08:09:20;57926.73;;;-140.43;40.27
30714;BME280;17465;47.934;33.430;2023-07-29T08:11:50;57961.69;;;-140.43;37.51
30714;BME280;17465;47.934;33.430;2023-07-29T08:14:21;58003.00;;;-140.43;41.38
30714;BME280;17465;47.934;33.430;2023-07-29T08:16:51;57965.93;;;-140.43;40.58
30714;BME280;17465;47.934;33.430;2023-07-29T08:19:21;58010.41;;;-140.43;36.80
30714;BME280;17465;47.934;33.430;2023-07-29T08:21:51;57983.93;;;-140.43;37.20
30714;BME280;17465;47.934;33.430;2023-07-29T08:24:21;58016.77;;;-140.43;38.79
30714;BME280;17465;47.934;33.430;2023-07-29T08:26:52;58016.77;;;-140.43;38.79
30714;BME280;17465;47.934;33.430;2023-07-29T08:29:22;57964.86;;;-140.43;42.26
30714;BME280;17465;47.934;33.430;2023-07-29T08:31:52;57954.27;;;-140.43;38.28
30714;BME280;17465;47.934;33.430;2023-07-29T08:34:23;57938.38;;;-140.43;38.94
30714;BME280;17465;47.934;33.430;2023-07-29T08:36:53;57910.84;;;-140.43;40.27
30714;BME280;17465;47.934;33.430;2023-07-29T08:39:23;57912.96;;;-140.43;43.54
30714;BME280;17465;47.934;33.430;2023-07-29T08:42:03;57936.27;;;-140.43;41.88
30714;BME280;17465;47.934;33.430;2023-07-29T08:44:35;57936.27;;;-140.43;41.88
30714;BME280;17465;47.934;33.430;2023-07-29T08:47:03;58044.31;;;-140.43;40.47
30714;BME280;17465;47.934;33.430;2023-07-29T08:49:34;58121.64;;;-140.43;39.78
30714;BME280;17465;47.934;33.430;2023-07-29T08:52:06;58116.34;;;-140.43;37.76
30714;BME280;17465;47.934;33.430;2023-07-29T08:54:36;58116.34;;;-140.43;37.76
30714;BME280;17465;47.934;33.430;2023-07-29T08:57:07;58098.33;;;-140.43;39.40
30714;BME280;17465;47.934;33.430;2023-07-29T08:59:38;58116.34;;;-140.43;39.15
30714;BME280;17465;47.934;33.430;2023-07-29T09:02:08;58116.34;;;-140.43;39.15
30714;BME280;17465;47.934;33.430;2023-07-29T09:04:39;58164.01;;;-140.43;36.74
30714;BME280;17465;47.934;33.430;2023-07-29T09:07:10;58171.43;;;-140.43;35.57
30714;BME280;17465;47.934;33.430;2023-07-29T09:09:40;58165.07;;;-140.43;35.07
30714;BME280;17465;47.934;33.430;2023-07-29T09:12:10;58165.07;;;-140.43;35.07
30714;BME280;17465;47.934;33.430;2023-07-29T09:14:41;58186.26;;;-140.43;34.90
30714;BME280;17465;47.934;33.430;2023-07-29T09:17:11;58186.26;;;-140.43;34.90
30714;BME280;17465;47.934;33.430;2023-07-29T09:19:42;58241.34;;;-140.43;36.71
30714;BME280;17465;47.934;33.430;2023-07-29T09:22:20;58241.34;;;-140.43;36.71
30714;BME280;17465;47.934;33.430;2023-07-29T09:24:50;58246.64;;;-140.43;35.83
30714;BME280;17465;47.934;33.430;2023-07-29T09:27:26;58339.86;;;-140.43;32.82
30714;BME280;17465;47.934;33.430;2023-07-29T09:29:57;58339.86;;;-140.43;32.82
30714;BME280;17465;47.934;33.430;2023-07-29T09:32:27;58386.48;;;-140.43;35.96
30714;BME280;17465;47.934;33.430;2023-07-29T09:34:58;58389.65;;;-140.43;33.83
30714;BME280;17465;47.934;33.430;2023-07-29T09:37:28;58445.80;;;-140.43;34.21
30714;BME280;17465;47.934;33.430;2023-07-29T09:39:58;58438.39;;;-140.43;32.23
30714;BME280;17465;47.934;33.430;2023-07-29T09:42:28;58438.39;;;-140.43;32.23
30714;BME280;17465;47.934;33.430;2023-07-29T09:44:59;58408.72;;;-140.43;32.50
30714;BME280;17465;47.934;33.430;2023-07-29T09:47:34;58299.61;;;-140.43;36.50
30714;BME280;17465;47.934;33.430;2023-07-29T09:50:00;58231.81;;;-140.43;33.89
30714;BME280;17465;47.934;33.430;2023-07-29T09:52:31;58231.81;;;-140.43;33.89
30714;BME280;17465;47.934;33.430;2023-07-29T09:55:01;58168.25;;;-140.43;35.75
30714;BME280;17465;47.934;33.430;2023-07-29T09:57:32;58168.25;;;-140.43;35.75
30714;BME280;17465;47.934;33.430;2023-07-29T10:00:02;58019.95;;;-140.43;38.12
30714;BME280;17465;47.934;33.430;2023-07-29T10:02:33;58019.95;;;-140.43;38.12
30714;BME280;17465;47.934;33.430;2023-07-29T10:05:06;58175.66;;;-140.43;37.83
30714;BME280;17465;47.934;33.430;2023-07-29T10:07:40;58175.66;;;-140.43;37.83
30714;BME280;17465;47.934;33.430;2023-07-29T10:10:11;58136.47;;;-140.43;35.97
30714;BME280;17465;47.934;33.430;2023-07-29T10:12:42;58210.62;;;-140.43;36.34
30714;BME280;17465;47.934;33.430;2023-07-29T10:15:13;58180.96;;;-140.43;34.80
30714;BME280;17465;47.934;33.430;2023-07-29T10:17:43;58180.96;;;-140.43;34.25
30714;BME280;17465;47.934;33.430;2023-07-29T10:20:16;58180.96;;;-140.43;34.25
30714;BME280;17465;47.934;33.430;2023-07-29T10:22:48;58165.07;;;-140.43;35.06
30714;BME280;17465;47.934;33.430;2023-07-29T10:25:23;58103.63;;;-140.43;38.20
30714;BME280;17465;47.934;33.430;2023-07-29T10:27:56;58103.63;;;-140.43;37.51
30714;BME280;17465;47.934;33.430;2023-07-29T10:30:28;58168.25;;;-140.43;37.95
30714;BME280;17465;47.934;33.430;2023-07-29T10:33:03;58168.25;;;-140.43;37.95
30714;BME280;17465;47.934;33.430;2023-07-29T10:35:34;58171.43;;;-140.43;38.25
30714;BME280;17465;47.934;33.430;2023-07-29T10:38:06;58142.82;;;-140.43;39.82
30714;BME280;17465;47.934;33.430;2023-07-29T10:40:49;58184.14;;;-140.43;34.35
30714;BME280;17465;47.934;33.430;2023-07-29T10:43:27;58184.14;;;-140.43;34.35
30714;BME280;17465;47.934;33.430;2023-07-29T10:46:14;58185.20;;;-140.43;35.92
30714;BME280;17465;47.934;33.430;2023-07-29T10:53:57;58186.26;;;-140.43;34.50
30714;BME280;17465;47.934;33.430;2023-07-29T10:56:32;58085.62;;;-140.43;38.25
30714;BME280;17465;47.934;33.430;2023-07-29T11:02:01;58064.44;;;-140.43;36.72
30714;BME280;17465;47.934;33.430;2023-07-29T11:04:29;58113.16;;;-140.43;38.92
30714;BME280;17465;47.934;33.430;2023-07-29T11:09:59;58103.63;;;-140.43;35.79
30714;BME280;17465;47.934;33.430;2023-07-29T11:15:26;58026.30;;;-140.43;39.83
30714;BME280;17465;47.934;33.430;2023-07-29T11:17:59;58026.30;;;-140.43;39.83
30714;BME280;17465;47.934;33.430;2023-07-29T11:20:33;58081.39;;;-140.43;38.96
30714;BME280;17465;47.934;33.430;2023-07-29T11:23:06;58004.06;;;-140.43;39.41
30714;BME280;17465;47.934;33.430;2023-07-29T11:25:36;58104.69;;;-140.43;37.25
30714;BME280;17465;47.934;33.430;2023-07-29T11:28:06;58189.43;;;-140.43;35.57
30714;BME280;17465;47.934;33.430;2023-07-29T11:30:39;58205.32;;;-140.43;35.46
30714;BME280;17465;47.934;33.430;2023-07-29T11:33:10;58254.05;;;-140.43;35.71
30714;BME280;17465;47.934;33.430;2023-07-29T11:35:42;58254.05;;;-140.43;35.71
30714;BME280;17465;47.934;33.430;2023-07-29T11:38:18;58333.51;;;-140.43;34.79
30714;BME280;17465;47.934;33.430;2023-07-29T11:41:05;58323.97;;;-140.43;34.77
30714;BME280;17465;47.934;33.430;2023-07-29T11:43:36;58320.79;;;-140.43;32.30
30714;BME280;17465;47.934;33.430;2023-07-29T11:46:06;58224.39;;;-140.43;33.49
30714;BME280;17465;47.934;33.430;2023-07-29T11:48:37;58189.43;;;-140.43;37.29
30714;BME280;17465;47.934;33.430;2023-07-29T11:51:07;58096.21;;;-140.43;35.59
30714;BME280;17465;47.934;33.430;2023-07-29T11:53:39;58161.89;;;-140.43;36.10
30714;BME280;17465;47.934;33.430;2023-07-29T11:56:11;58190.50;;;-140.43;37.72
30714;BME280;17465;47.934;33.430;2023-07-29T11:58:44;58190.50;;;-140.43;37.72
30714;BME280;17465;47.934;33.430;2023-07-29T12:01:15;58100.45;;;-140.43;35.99
30714;BME280;17465;47.934;33.430;2023-07-29T12:03:50;58229.69;;;-140.43;35.54
30714;BME280;17465;47.934;33.430;2023-07-29T12:06:23;58229.69;;;-140.43;35.54
30714;BME280;17465;47.934;33.430;2023-07-29T12:08:54;58202.15;;;-140.43;36.43
30714;BME280;17465;47.934;33.430;2023-07-29T12:11:24;58202.15;;;-140.43;36.43
30714;BME280;17465;47.934;33.430;2023-07-29T12:13:55;58173.54;;;-140.43;33.65
30714;BME280;17465;47.934;33.430;2023-07-29T12:16:30;58207.44;;;-140.43;35.29
30714;BME280;17465;47.934;33.430;2023-07-29T12:19:01;58076.09;;;-140.43;37.13
30714;BME280;17465;47.934;33.430;2023-07-29T12:21:32;58076.09;;;-140.43;37.13
30714;BME280;17465;47.934;33.430;2023-07-29T12:24:09;58100.45;;;-140.43;37.30
30714;BME280;17465;47.934;33.430;2023-07-29T12:26:40;58189.43;;;-140.43;34.29
30714;BME280;17465;47.934;33.430;2023-07-29T12:29:32;58095.16;;;-140.43;35.64
30714;BME280;17465;47.934;33.430;2023-07-29T12:32:05;58125.87;;;-140.43;36.24
30714;BME280;17465;47.934;33.430;2023-07-29T12:34:38;58125.87;;;-140.43;36.24
30714;BME280;17465;47.934;33.430;2023-07-29T12:37:08;58036.89;;;-140.43;37.82
30714;BME280;17465;47.934;33.430;2023-07-29T12:39:40;58036.89;;;-140.43;37.82
30714;BME280;17465;47.934;33.430;2023-07-29T12:42:14;58079.27;;;-140.43;37.82
30714;BME280;17465;47.934;33.430;2023-07-29T12:44:48;58173.54;;;-140.43;34.72
30714;BME280;17465;47.934;33.430;2023-07-29T12:47:18;58296.43;;;-140.43;33.61
30714;BME280;17465;47.934;33.430;2023-07-29T12:49:49;58321.85;;;-140.43;32.50
30714;BME280;17465;47.934;33.430;2023-07-29T12:52:19;58411.90;;;-140.43;30.91
30714;BME280;17465;47.934;33.430;2023-07-29T12:54:54;58411.90;;;-140.43;30.91
30714;BME280;17465;47.934;33.430;2023-07-29T12:57:24;58368.46;;;-140.43;32.07
30714;BME280;17465;47.934;33.430;2023-07-29T12:59:56;58387.54;;;-140.43;31.15
30714;BME280;17465;47.934;33.430;2023-07-29T13:02:26;58428.85;;;-140.43;30.71
30714;BME280;17465;47.934;33.430;2023-07-29T13:04:57;58483.94;;;-140.43;30.09
30714;BME280;17465;47.934;33.430;2023-07-29T13:07:29;58388.59;;;-140.43;31.30
30714;BME280;17465;47.934;33.430;2023-07-29T13:10:02;58388.59;;;-140.43;31.30